Time;durP1;ratioP1;P1;durP2;ratioP2;P2;SDS_P1;SDS_P2;PMS_P1;PMS_P2;Temp;Humidity;BMP_temperature;BMP_pressure;BME280_temperature;BME280_humidity;BME280_pressure;Samples;Min_cycle;Max_cycle;Signal;HPM_P1;HPM_P2
2024/01/12 00:00:53;;;;;;;22.30;13.38;;;;;;;2.07;100.00;99019.13;5076352;28;20019;-67
2024/01/12 00:03:21;;;;;;;17.85;12.20;;;;;;;2.06;100.00;99030.28;5051856;28;20098;-68
2024/01/12 00:05:46;;;;;;;21.08;12.70;;;;;;;2.10;100.00;99031.78;5063629;28;20088;-67
2024/01/12 00:08:17;;;;;;;20.75;12.45;;;;;;;2.03;100.00;99027.88;5066406;28;20087;-70
2024/01/12 00:10:42;;;;;;;20.20;12.63;;;;;;;2.08;100.00;99041.28;5051996;28;20023;-70
2024/01/12 00:13:08;;;;;;;19.05;12.13;;;;;;;1.92;100.00;99028.44;5053014;28;20098;-69
2024/01/12 00:15:34;;;;;;;18.25;11.65;;;;;;;2.00;100.00;99040.88;5065858;28;20061;-72
2024/01/12 00:18:02;;;;;;;21.70;13.05;;;;;;;2.00;100.00;99043.44;5071474;28;20035;-69
2024/01/12 00:20:28;;;;;;;21.55;12.52;;;;;;;1.89;100.00;99018.34;5072514;28;20091;-69
2024/01/12 00:22:56;;;;;;;18.65;12.05;;;;;;;1.95;100.00;99035.97;5072083;28;20035;-67
2024/01/12 00:25:24;;;;;;;20.42;12.45;;;;;;;1.92;100.00;99031.00;5065977;28;20019;-71
2024/01/12 00:27:54;;;;;;;19.15;12.13;;;;;;;1.90;100.00;99033.66;5051719;28;20028;-69
2024/01/12 00:30:20;;;;;;;17.10;11.50;;;;;;;1.90;100.00;99025.13;5054384;28;20024;-69
2024/01/12 00:32:45;;;;;;;19.50;11.65;;;;;;;1.91;100.00;99012.22;5068426;28;20035;-70
2024/01/12 00:35:13;;;;;;;18.38;12.38;;;;;;;1.68;100.00;99013.41;5082861;28;20027;-73
2024/01/12 00:37:38;;;;;;;19.85;12.82;;;;;;;1.72;100.00;99032.03;5070284;28;20135;-70
2024/01/12 00:40:04;;;;;;;19.50;12.50;;;;;;;1.69;100.00;99025.31;5054123;28;20029;-70
2024/01/12 00:42:29;;;;;;;19.45;11.82;;;;;;;1.66;100.00;99029.78;5057413;28;20039;-67
2024/01/12 00:44:54;;;;;;;20.27;12.75;;;;;;;1.32;100.00;98987.94;5093201;28;20020;-68
2024/01/12 00:47:22;;;;;;;19.88;11.45;;;;;;;1.68;100.00;99044.19;5063215;28;20147;-65
2024/01/12 00:49:47;;;;;;;19.55;11.90;;;;;;;1.78;100.00;99031.72;5047983;28;20084;-69
2024/01/12 00:52:15;;;;;;;17.02;12.60;;;;;;;1.46;100.00;98972.69;5071982;28;20630;-71
2024/01/12 00:54:40;;;;;;;19.40;11.75;;;;;;;1.38;100.00;98956.84;5083622;28;20046;-71
2024/01/12 00:57:06;;;;;;;18.85;11.82;;;;;;;1.73;100.00;99002.91;5060154;28;20036;-70
2024/01/12 00:59:31;;;;;;;18.45;11.98;;;;;;;1.76;100.00;99005.31;5048752;28;20030;-69
2024/01/12 01:01:59;;;;;;;18.15;12.60;;;;;;;1.76;100.00;99002.75;5063396;28;20839;-67
2024/01/12 01:04:28;;;;;;;16.20;11.18;;;;;;;1.48;100.00;98972.59;5086899;28;20059;-68
2024/01/12 01:06:56;;;;;;;20.17;11.20;;;;;;;1.38;100.00;98958.59;5054416;28;20036;-70
2024/01/12 01:09:27;;;;;;;18.02;11.27;;;;;;;1.77;100.00;99009.56;5069221;28;20530;-68
2024/01/12 01:11:57;;;;;;;18.17;11.20;;;;;;;1.85;100.00;99029.66;5067709;28;20050;-66
2024/01/12 01:14:25;;;;;;;17.67;11.18;;;;;;;1.68;100.00;99021.09;5061096;28;20040;-68
2024/01/12 01:16:51;;;;;;;15.88;10.48;;;;;;;1.79;100.00;99018.00;5073859;28;20028;-68
2024/01/12 01:19:17;;;;;;;17.55;11.40;;;;;;;1.76;100.00;99022.47;5061423;28;20040;-66
2024/01/12 01:21:43;;;;;;;18.00;11.32;;;;;;;1.83;100.00;99016.09;5069840;28;20498;-69
2024/01/12 01:24:08;;;;;;;15.77;10.30;;;;;;;1.84;100.00;99005.75;5072583;28;20034;-69
2024/01/12 01:26:33;;;;;;;17.05;10.75;;;;;;;1.91;100.00;99011.38;5056444;28;20146;-69
2024/01/12 01:28:59;;;;;;;16.00;10.07;;;;;;;2.00;100.00;99018.59;5068866;28;20396;-68
2024/01/12 01:31:25;;;;;;;17.13;9.35;;;;;;;1.77;100.00;98970.25;5076886;28;20027;-67
2024/01/12 01:33:50;;;;;;;15.20;9.20;;;;;;;2.03;100.00;99013.31;5071812;28;20027;-69
2024/01/12 01:36:18;;;;;;;13.55;8.85;;;;;;;2.10;100.00;99006.13;5069123;28;20101;-68
2024/01/12 01:38:43;;;;;;;12.88;9.15;;;;;;;2.17;100.00;99014.31;5054839;28;20055;-68
2024/01/12 01:41:08;;;;;;;14.18;8.43;;;;;;;2.21;100.00;99015.81;5073443;28;20036;-67
2024/01/12 01:43:35;;;;;;;13.63;8.40;;;;;;;2.26;100.00;99012.09;5087222;28;20016;-69
2024/01/12 01:46:00;;;;;;;15.13;9.73;;;;;;;2.34;100.00;99013.41;5076316;28;20522;-66
2024/01/12 01:48:28;;;;;;;12.48;8.40;;;;;;;2.42;100.00;99003.56;5058879;28;20031;-68
2024/01/12 01:50:56;;;;;;;13.18;8.75;;;;;;;2.39;100.00;98996.88;5062535;28;20038;-68
2024/01/12 01:53:31;;;;;;;12.05;8.48;;;;;;;2.31;100.00;98971.59;5081293;28;20028;-68
2024/01/12 01:55:56;;;;;;;12.63;8.05;;;;;;;2.54;100.00;99002.06;5058733;28;20209;-73
2024/01/12 01:58:22;;;;;;;13.23;8.70;;;;;;;2.47;100.00;98979.28;5059135;28;20611;-67
2024/01/12 02:00:51;;;;;;;11.55;8.13;;;;;;;2.50;100.00;98988.56;5078361;28;20023;-70
2024/01/12 02:03:16;;;;;;;13.43;7.87;;;;;;;2.45;100.00;98990.56;5077616;28;20034;-68
2024/01/12 02:05:42;;;;;;;11.93;7.95;;;;;;;2.13;100.00;98957.22;5067042;28;20285;-67
2024/01/12 02:08:08;;;;;;;12.40;7.88;;;;;;;2.37;100.00;98995.28;5076403;28;20371;-68
2024/01/12 02:10:35;;;;;;;15.23;9.27;;;;;;;2.36;100.00;99006.47;5066690;28;20039;-67
2024/01/12 02:13:01;;;;;;;13.93;8.48;;;;;;;2.46;100.00;98995.63;5074815;28;20163;-70
2024/01/12 02:15:26;;;;;;;12.45;8.40;;;;;;;2.46;100.00;98990.50;5077344;28;20043;-67
2024/01/12 02:17:54;;;;;;;12.43;8.27;;;;;;;2.50;100.00;98986.84;5060859;28;20032;-68
2024/01/12 02:20:19;;;;;;;12.43;7.97;;;;;;;2.22;100.00;98936.19;5072081;28;20023;-67
2024/01/12 02:22:44;;;;;;;12.68;8.55;;;;;;;2.47;100.00;98979.28;5073599;28;20043;-67
2024/01/12 02:25:13;;;;;;;11.50;8.07;;;;;;;2.55;100.00;98976.31;5075067;28;20038;-72
2024/01/12 02:27:39;;;;;;;12.00;8.07;;;;;;;2.54;100.00;98969.53;5056340;28;20131;-68
2024/01/12 02:30:05;;;;;;;12.18;7.78;;;;;;;2.62;100.00;98966.53;5060529;28;20023;-71
2024/01/12 02:32:35;;;;;;;12.45;8.50;;;;;;;2.66;100.00;98961.13;5077136;28;20655;-67
2024/01/12 02:35:01;;;;;;;14.27;7.80;;;;;;;2.66;100.00;98957.72;5059944;28;20040;-68
2024/01/12 02:37:26;;;;;;;13.55;8.43;;;;;;;2.81;100.00;98959.44;5070537;28;20027;-69
2024/01/12 02:39:51;;;;;;;12.45;8.27;;;;;;;2.76;100.00;98945.22;5074935;28;20031;-68
2024/01/12 02:42:17;;;;;;;12.88;7.97;;;;;;;2.76;100.00;98960.63;5094357;28;20180;-69
2024/01/12 02:44:42;;;;;;;12.73;8.13;;;;;;;2.49;100.00;98946.66;5089835;28;20081;-68
2024/01/12 02:47:08;;;;;;;12.95;8.50;;;;;;;2.55;100.00;98954.94;5071002;27;20657;-66
2024/01/12 02:49:36;;;;;;;14.05;8.23;;;;;;;2.19;100.00;98894.47;5054495;28;20601;-67
2024/01/12 02:52:04;;;;;;;13.45;8.50;;;;;;;2.48;100.00;98924.50;5095318;27;20032;-71
2024/01/12 02:54:29;;;;;;;12.85;8.95;;;;;;;2.50;100.00;98938.06;5072419;28;20198;-70
2024/01/12 02:56:55;;;;;;;12.48;8.10;;;;;;;2.50;100.00;98930.38;5079759;28;20704;-72
2024/01/12 02:59:22;;;;;;;12.25;8.25;;;;;;;2.55;100.00;98924.13;5047673;28;20036;-69
2024/01/12 03:01:48;;;;;;;13.00;8.82;;;;;;;2.55;100.00;98911.31;5062998;28;20036;-67
2024/01/12 03:04:13;;;;;;;12.25;8.15;;;;;;;2.52;100.00;98902.03;5063859;28;20493;-68
2024/01/12 03:06:39;;;;;;;14.13;8.10;;;;;;;2.67;100.00;98902.91;5071458;28;20032;-69
2024/01/12 03:09:10;;;;;;;13.05;8.50;;;;;;;2.82;100.00;98914.03;5080304;28;20032;-66
2024/01/12 03:11:37;;;;;;;14.32;8.52;;;;;;;2.76;100.00;98901.56;5085658;28;20027;-70
2024/01/12 03:14:03;;;;;;;11.95;7.30;;;;;;;2.67;100.00;98896.03;5085279;28;20079;-69
2024/01/12 03:16:30;;;;;;;10.85;6.95;;;;;;;2.60;100.00;98911.88;5062929;28;20145;-69
2024/01/12 03:18:56;;;;;;;12.88;7.72;;;;;;;2.48;100.00;98901.38;5079018;28;20050;-69
2024/01/12 03:21:21;;;;;;;13.05;8.57;;;;;;;2.33;100.00;98881.69;5094990;28;20023;-71
2024/01/12 03:23:49;;;;;;;14.95;8.35;;;;;;;2.19;100.00;98851.69;5099940;27;20038;-67
2024/01/12 03:26:14;;;;;;;12.32;7.90;;;;;;;2.01;100.00;98848.41;5085833;28;20047;-67
2024/01/12 03:28:40;;;;;;;12.02;7.90;;;;;;;2.31;100.00;98902.31;5071281;28;20303;-66
2024/01/12 03:31:06;;;;;;;14.70;7.97;;;;;;;2.42;100.00;98895.75;5080224;28;20629;-67
2024/01/12 03:33:36;;;;;;;12.98;7.78;;;;;;;2.45;100.00;98898.97;5055596;27;20569;-69
2024/01/12 03:36:06;;;;;;;11.85;7.45;;;;;;;2.50;100.00;98898.72;5077535;27;20073;-72
2024/01/12 03:38:31;;;;;;;11.95;7.88;;;;;;;2.48;100.00;98893.69;5057864;28;20102;-68
2024/01/12 03:40:57;;;;;;;11.98;7.72;;;;;;;2.44;100.00;98884.47;5086336;27;20652;-72
2024/01/12 03:43:22;;;;;;;12.10;7.93;;;;;;;2.59;100.00;98892.22;5064315;28;20028;-69
2024/01/12 03:45:50;;;;;;;12.10;8.07;;;;;;;2.65;100.00;98897.84;5068993;27;20028;-65
2024/01/12 03:48:18;;;;;;;11.77;7.07;;;;;;;2.46;100.00;98898.09;5058157;28;20128;-68
2024/01/12 03:50:45;;;;;;;14.35;8.25;;;;;;;2.42;100.00;98891.44;5053367;27;20019;-70
2024/01/12 03:53:11;;;;;;;12.00;7.75;;;;;;;2.39;100.00;98871.09;5074560;28;20035;-69
2024/01/12 03:55:36;;;;;;;14.48;7.40;;;;;;;2.43;100.00;98882.84;5074722;27;20107;-70
2024/01/12 03:58:05;;;;;;;11.75;7.35;;;;;;;2.49;100.00;98886.81;5060354;28;20034;-69
2024/01/12 04:00:30;;;;;;;12.02;7.22;;;;;;;2.45;100.00;98888.72;5065833;28;20081;-67
2024/01/12 04:02:55;;;;;;;12.40;7.90;;;;;;;2.47;100.00;98870.66;5070526;28;20045;-68
2024/01/12 04:05:21;;;;;;;11.63;7.22;;;;;;;2.68;100.00;98890.00;5088682;28;20122;-72
2024/01/12 04:07:46;;;;;;;12.18;7.53;;;;;;;2.72;100.00;98884.66;5087478;28;20872;-75
2024/01/12 04:10:12;;;;;;;11.32;7.32;;;;;;;2.34;100.00;98824.34;5096626;28;20035;-68
2024/01/12 04:12:39;;;;;;;11.40;6.97;;;;;;;2.64;100.00;98872.25;5076629;28;20051;-68
2024/01/12 04:15:06;;;;;;;13.00;7.35;;;;;;;2.63;100.00;98884.28;5076628;28;20139;-69
2024/01/12 04:17:33;;;;;;;10.90;6.68;;;;;;;2.54;100.00;98882.25;5058915;28;20046;-67
2024/01/12 04:19:59;;;;;;;11.93;7.20;;;;;;;2.56;100.00;98889.88;5059359;28;20737;-71
2024/01/12 04:22:26;;;;;;;11.07;6.75;;;;;;;2.54;100.00;98889.09;5059222;28;20078;-69
2024/01/12 04:24:52;;;;;;;11.98;7.60;;;;;;;2.58;100.00;98883.72;5091890;28;20027;-73
2024/01/12 04:27:20;;;;;;;12.73;7.35;;;;;;;2.60;100.00;98881.06;5093971;28;20065;-68
2024/01/12 04:29:48;;;;;;;11.23;7.63;;;;;;;2.48;100.00;98875.72;5056563;28;20024;-71
2024/01/12 04:32:16;;;;;;;11.85;7.30;;;;;;;2.39;100.00;98875.41;5050313;28;20036;-67
2024/01/12 04:34:42;;;;;;;10.68;6.55;;;;;;;2.08;100.00;98836.91;5074261;28;20020;-67
2024/01/12 04:37:09;;;;;;;11.90;6.97;;;;;;;2.13;100.00;98843.50;5075138;28;20061;-68
2024/01/12 04:39:35;;;;;;;11.20;6.95;;;;;;;2.44;100.00;98897.31;5074099;28;20023;-69
2024/01/12 04:42:00;;;;;;;12.85;7.07;;;;;;;2.05;100.00;98831.94;5064004;28;20050;-71
2024/01/12 04:44:25;;;;;;;11.15;7.13;;;;;;;2.38;100.00;98882.28;5076398;28;20552;-68
2024/01/12 04:46:53;;;;;;;12.13;7.50;;;;;;;2.30;100.00;98885.28;5070083;28;20088;-68
2024/01/12 04:49:18;;;;;;;11.55;6.80;;;;;;;1.90;100.00;98832.81;5075829;28;21184;-69
2024/01/12 04:51:44;;;;;;;11.52;7.28;;;;;;;2.21;100.00;98882.38;5082777;28;20056;-70
2024/01/12 04:54:09;;;;;;;11.10;6.60;;;;;;;2.00;100.00;98879.28;5090953;27;20046;-70
2024/01/12 04:56:34;;;;;;;11.70;6.78;;;;;;;1.89;100.00;98883.25;5063597;28;20020;-70
2024/01/12 04:59:02;;;;;;;10.20;6.45;;;;;;;1.98;100.00;98892.19;5058392;28;20541;-71
2024/01/12 05:01:29;;;;;;;11.13;6.47;;;;;;;2.05;100.00;98880.69;5075216;28;20024;-67
2024/01/12 05:03:55;;;;;;;12.38;6.43;;;;;;;1.70;100.00;98829.59;5067712;28;20024;-69
2024/01/12 05:06:20;;;;;;;11.23;7.20;;;;;;;1.96;100.00;98882.94;5080475;28;20588;-68
2024/01/12 05:08:48;;;;;;;13.18;7.13;;;;;;;1.89;100.00;98879.84;5083176;28;20484;-69
2024/01/12 05:11:14;;;;;;;11.30;6.25;;;;;;;1.94;100.00;98888.13;5100332;27;20771;-68
2024/01/12 05:13:41;;;;;;;11.68;7.15;;;;;;;1.87;100.00;98879.13;5054202;28;20106;-70
2024/01/12 05:16:07;;;;;;;11.52;6.40;;;;;;;1.56;100.00;98838.94;5070048;28;20045;-68
2024/01/12 05:18:32;;;;;;;14.15;8.60;;;;;;;1.66;100.00;98892.19;5060351;28;20760;-67
2024/01/12 05:20:57;;;;;;;12.45;7.32;;;;;;;1.68;100.00;98897.22;5078036;28;20024;-69
2024/01/12 05:23:23;;;;;;;11.73;7.45;;;;;;;1.71;100.00;98890.19;5051333;28;20373;-68
2024/01/12 05:25:48;;;;;;;14.65;8.93;;;;;;;1.62;100.00;98911.19;5081436;28;20023;-70
2024/01/12 05:28:14;;;;;;;13.20;8.20;;;;;;;1.63;100.00;98902.59;5068025;28;20041;-65
2024/01/12 05:30:39;;;;;;;12.95;8.00;;;;;;;1.56;100.00;98908.13;5077469;28;20875;-68
2024/01/12 05:33:04;;;;;;;15.70;8.88;;;;;;;1.50;100.00;98902.41;5075965;28;20455;-67
2024/01/12 05:35:30;;;;;;;15.52;9.35;;;;;;;1.66;100.00;98909.28;5069685;28;20144;-69
2024/01/12 05:37:55;;;;;;;15.43;9.80;;;;;;;1.72;100.00;98912.34;5060790;28;20684;-70
2024/01/12 05:40:23;;;;;;;14.10;9.07;;;;;;;1.25;100.00;98851.63;5069096;28;20035;-69
2024/01/12 05:42:48;;;;;;;15.45;9.88;;;;;;;1.61;100.00;98921.53;5068830;28;20016;-69
2024/01/12 05:45:14;;;;;;;15.98;10.15;;;;;;;1.31;100.00;98865.84;5038494;28;20613;-73
2024/01/12 05:47:42;;;;;;;14.05;9.05;;;;;;;1.47;100.00;98914.56;5067352;28;20035;-68
2024/01/12 05:50:07;;;;;;;14.57;9.93;;;;;;;1.46;100.00;98920.56;5041338;28;20737;-68
2024/01/12 05:52:34;;;;;;;16.00;11.10;;;;;;;1.57;100.00;98923.44;5043063;28;20097;-72
2024/01/12 05:54:59;;;;;;;18.83;10.50;;;;;;;1.47;100.00;98920.50;5054218;28;20024;-66
2024/01/12 05:57:25;;;;;;;15.43;10.30;;;;;;;1.41;100.00;98920.00;5058119;28;20036;-68
2024/01/12 05:59:51;;;;;;;14.32;10.10;;;;;;;1.24;100.00;98915.72;5039393;28;20154;-67
2024/01/12 06:02:16;;;;;;;15.10;10.05;;;;;;;1.25;100.00;98907.97;5050880;28;20115;-70
2024/01/12 06:04:42;;;;;;;13.93;10.02;;;;;;;1.23;100.00;98921.78;5054917;28;20042;-67
2024/01/12 06:07:10;;;;;;;18.42;10.82;;;;;;;1.34;100.00;98930.56;5057585;28;20476;-70
2024/01/12 06:09:35;;;;;;;15.30;9.73;;;;;;;1.31;100.00;98923.06;5048696;28;20032;-70
2024/01/12 06:12:00;;;;;;;15.32;9.95;;;;;;;0.96;100.00;98881.28;5057532;28;20043;-72
2024/01/12 06:14:26;;;;;;;17.27;10.35;;;;;;;0.95;100.00;98865.09;5074136;28;20062;-70
2024/01/12 06:16:52;;;;;;;13.45;9.05;;;;;;;1.40;100.00;98928.59;5081160;28;20737;-72
2024/01/12 06:19:17;;;;;;;14.57;9.75;;;;;;;1.29;100.00;98909.47;5072483;28;20055;-72
2024/01/12 06:21:43;;;;;;;14.35;9.75;;;;;;;1.37;100.00;98921.91;5056176;28;20062;-68
2024/01/12 06:24:11;;;;;;;15.43;10.40;;;;;;;1.36;100.00;98914.28;5054211;28;20065;-67
2024/01/12 06:26:37;;;;;;;13.68;9.60;;;;;;;1.28;100.00;98910.38;5052040;27;20054;-73
2024/01/12 06:29:02;;;;;;;13.82;8.88;;;;;;;1.20;100.00;98921.94;5050979;28;20070;-69
2024/01/12 06:31:31;;;;;;;14.43;9.05;;;;;;;1.31;100.00;98933.31;5076111;28;20073;-67
2024/01/12 06:33:56;;;;;;;14.65;9.35;;;;;;;1.26;100.00;98926.72;5075488;28;20748;-70
2024/01/12 06:36:21;;;;;;;12.95;8.32;;;;;;;1.19;100.00;98931.34;5075252;28;20070;-68
2024/01/12 06:38:47;;;;;;;13.02;9.07;;;;;;;1.19;100.00;98951.00;5051370;28;20066;-67
2024/01/12 06:41:12;;;;;;;17.27;11.70;;;;;;;1.13;100.00;98949.56;5076165;28;20103;-71
2024/01/12 06:43:38;;;;;;;16.58;10.60;;;;;;;0.99;100.00;98914.44;5069229;28;20656;-68
2024/01/12 06:46:05;;;;;;;18.15;11.50;;;;;;;1.18;100.00;98962.16;5083722;27;20174;-66
2024/01/12 06:48:31;;;;;;;16.98;10.40;;;;;;;1.14;100.00;98958.94;5072383;28;20103;-73
2024/01/12 06:50:56;;;;;;;16.50;10.32;;;;;;;1.21;100.00;98973.09;5061157;28;20032;-69
2024/01/12 06:53:22;;;;;;;16.85;10.80;;;;;;;1.03;100.00;98943.28;5074641;28;20104;-68
2024/01/12 06:55:47;;;;;;;18.55;11.48;;;;;;;1.12;100.00;98963.31;5072945;28;20015;-67
2024/01/12 06:58:12;;;;;;;18.40;12.85;;;;;;;1.16;100.00;98964.81;5073880;28;21153;-69
2024/01/12 07:00:38;;;;;;;21.23;14.05;;;;;;;1.12;100.00;98974.38;5076025;28;20026;-68
2024/01/12 07:03:03;;;;;;;18.20;13.35;;;;;;;0.90;100.00;98941.31;5071239;28;20036;-68
2024/01/12 07:05:29;;;;;;;18.98;11.65;;;;;;;1.13;100.00;98981.16;5081505;28;20016;-66
2024/01/12 07:07:54;;;;;;;17.42;11.10;;;;;;;0.97;100.00;98967.47;5050771;28;20032;-73
2024/01/12 07:10:22;;;;;;;16.70;10.13;;;;;;;1.03;100.00;98979.13;5053887;28;20556;-66
2024/01/12 07:12:51;;;;;;;16.63;9.88;;;;;;;1.17;100.00;98989.53;5055120;28;20044;-70
2024/01/12 07:15:18;;;;;;;21.05;12.73;;;;;;;1.05;100.00;98972.19;5043339;27;20886;-70
2024/01/12 07:17:45;;;;;;;18.38;12.98;;;;;;;0.71;100.00;98930.31;5076518;28;20030;-69
2024/01/12 07:20:11;;;;;;;17.63;12.02;;;;;;;1.09;100.00;98996.75;5060858;27;20027;-69
2024/01/12 07:22:37;;;;;;;21.40;11.70;;;;;;;1.15;100.00;99001.59;5074559;28;20038;-72
2024/01/12 07:25:05;;;;;;;18.45;11.13;;;;;;;0.99;100.00;98987.88;5054390;28;20031;-65
2024/01/12 07:27:33;;;;;;;14.95;9.63;;;;;;;0.89;100.00;98993.41;5061958;28;20070;-65
2024/01/12 07:29:58;;;;;;;21.23;10.52;;;;;;;0.92;100.00;99013.75;5068524;28;20596;-68
2024/01/12 07:32:23;;;;;;;16.20;9.77;;;;;;;1.06;100.00;99000.28;5076853;28;20031;-69
2024/01/12 07:34:49;;;;;;;16.30;10.43;;;;;;;0.86;100.00;98967.97;5075449;28;20525;-68
2024/01/12 07:37:14;;;;;;;18.13;10.63;;;;;;;0.99;100.00;98996.38;5060268;28;20055;-71
2024/01/12 07:39:40;;;;;;;17.70;10.70;;;;;;;1.02;100.00;99005.63;5089285;27;20481;-68
2024/01/12 07:42:07;;;;;;;17.00;10.13;;;;;;;0.92;100.00;98990.72;5075943;28;20920;-68
2024/01/12 07:44:32;;;;;;;16.85;11.00;;;;;;;0.75;100.00;98976.19;5076319;28;20303;-68
2024/01/12 07:46:58;;;;;;;16.60;9.57;;;;;;;1.01;100.00;99027.03;5057629;28;20037;-69
2024/01/12 07:49:25;;;;;;;16.00;9.75;;;;;;;1.06;100.00;99019.94;5085419;27;20046;-69
2024/01/12 07:51:53;;;;;;;16.88;10.18;;;;;;;1.00;100.00;99013.38;5062248;27;20027;-70
2024/01/12 07:54:18;;;;;;;17.75;10.15;;;;;;;0.89;100.00;99016.47;5069410;28;20833;-68
2024/01/12 07:56:44;;;;;;;16.80;10.30;;;;;;;1.01;100.00;99040.66;5094888;27;20051;-68
2024/01/12 07:59:09;;;;;;;16.50;9.80;;;;;;;1.01;100.00;99027.84;5060338;27;20497;-67
2024/01/12 08:01:40;;;;;;;19.90;10.85;;;;;;;0.94;100.00;99024.75;5053407;28;20072;-70
2024/01/12 08:04:06;;;;;;;19.52;11.38;;;;;;;1.06;100.00;99027.63;5058995;28;20040;-69
2024/01/12 08:06:31;;;;;;;18.20;11.52;;;;;;;1.11;100.00;99028.22;5076311;28;20109;-69
2024/01/12 08:08:56;;;;;;;18.42;11.68;;;;;;;1.00;100.00;99000.56;5056408;27;20027;-69
2024/01/12 08:11:23;;;;;;;18.70;11.07;;;;;;;1.08;100.00;99018.16;5061670;28;20857;-69
2024/01/12 08:13:48;;;;;;;17.67;10.95;;;;;;;1.07;100.00;99024.97;5066271;28;20135;-67
2024/01/12 08:16:21;;;;;;;22.98;11.50;;;;;;;1.02;100.00;99041.47;5053559;28;20181;-70
2024/01/12 08:18:49;;;;;;;18.75;11.23;;;;;;;1.10;100.00;99041.94;5079829;28;20127;-69
2024/01/12 08:21:16;;;;;;;17.23;11.10;;;;;;;1.03;100.00;99046.53;5076296;28;20340;-68
2024/01/12 08:23:42;;;;;;;18.50;11.15;;;;;;;0.92;100.00;99043.66;5056988;27;20031;-67
2024/01/12 08:26:09;;;;;;;17.40;10.85;;;;;;;0.96;100.00;99042.59;5073100;28;20027;-68
2024/01/12 08:28:39;;;;;;;16.30;10.27;;;;;;;0.97;100.00;99046.84;5087141;28;20601;-69
2024/01/12 08:31:05;;;;;;;16.08;9.93;;;;;;;1.07;100.00;99042.09;5070701;28;20586;-70
2024/01/12 08:33:30;;;;;;;15.52;10.07;;;;;;;1.12;100.00;99063.19;5073600;28;20109;-67
2024/01/12 08:35:56;;;;;;;18.33;10.70;;;;;;;1.15;100.00;99057.94;5066150;28;20027;-66
2024/01/12 08:38:21;;;;;;;17.60;10.13;;;;;;;1.20;100.00;99067.94;5062010;28;20031;-68
2024/01/12 08:40:46;;;;;;;14.43;9.85;;;;;;;0.94;100.00;99034.16;5084928;28;20040;-68
2024/01/12 08:43:12;;;;;;;17.08;10.55;;;;;;;1.29;100.00;99083.69;5062831;28;20646;-71
2024/01/12 08:45:38;;;;;;;20.10;10.68;;;;;;;1.34;100.00;99070.66;5068967;28;20235;-67
2024/01/12 08:48:05;;;;;;;19.42;11.10;;;;;;;1.36;100.00;99084.22;5057930;28;20020;-67
2024/01/12 08:50:31;;;;;;;18.23;10.90;;;;;;;1.41;100.00;99082.28;5069493;28;20026;-67
2024/01/12 08:52:58;;;;;;;17.80;11.23;;;;;;;1.41;100.00;99081.44;5062987;28;20248;-71
2024/01/12 08:55:26;;;;;;;18.33;11.13;;;;;;;1.23;100.00;99055.81;5059963;28;20039;-72
2024/01/12 08:57:52;;;;;;;19.10;11.18;;;;;;;1.42;100.00;99085.66;5087138;28;20900;-70
2024/01/12 09:00:17;;;;;;;18.60;11.60;;;;;;;1.36;100.00;99076.53;5076606;28;20031;-74
2024/01/12 09:02:43;;;;;;;20.77;11.85;;;;;;;1.39;100.00;99093.47;5083185;28;20646;-69
2024/01/12 09:05:08;;;;;;;17.58;11.35;;;;;;;1.37;100.00;99085.03;5071045;28;20027;-67
2024/01/12 09:07:34;;;;;;;15.15;10.38;;;;;;;1.43;100.00;99095.00;5080770;28;20028;-69
2024/01/12 09:10:00;;;;;;;19.20;11.85;;;;;;;1.50;100.00;99094.63;5097365;28;20038;-68
2024/01/12 09:12:28;;;;;;;19.38;11.75;;;;;;;1.19;100.00;99031.25;5085129;28;20143;-67
2024/01/12 09:14:53;;;;;;;17.00;11.55;;;;;;;1.50;100.00;99094.63;5079214;28;20023;-72
2024/01/12 09:17:19;;;;;;;16.65;10.80;;;;;;;1.09;100.00;99038.53;5079463;28;20062;-66
2024/01/12 09:19:44;;;;;;;16.40;10.77;;;;;;;1.52;100.00;99100.50;5076425;28;20027;-72
2024/01/12 09:22:11;;;;;;;18.33;10.95;;;;;;;1.54;100.00;99098.69;5068467;28;20082;-69
2024/01/12 09:24:36;;;;;;;14.60;10.20;;;;;;;1.53;100.00;99091.94;5071271;28;21470;-67
2024/01/12 09:27:02;;;;;;;18.27;10.45;;;;;;;1.59;100.00;99100.19;5070398;28;20031;-68
2024/01/12 09:29:27;;;;;;;15.13;9.90;;;;;;;1.71;100.00;99102.16;5049954;28;20191;-69
2024/01/12 09:31:56;;;;;;;15.05;9.10;;;;;;;1.67;100.00;99098.91;5066801;28;20024;-67
2024/01/12 09:34:21;;;;;;;15.57;9.25;;;;;;;1.66;100.00;99099.84;5056461;27;20058;-72
2024/01/12 09:36:47;;;;;;;15.43;9.27;;;;;;;1.77;100.00;99101.00;5052073;28;20479;-70
2024/01/12 09:39:17;;;;;;;18.42;9.85;;;;;;;1.80;100.00;99106.00;5075981;28;20022;-68
2024/01/12 09:41:46;;;;;;;;;;;;;;;1.85;100.00;99097.16;5063346;28;20028;-69
2024/01/12 09:44:14;;;;;;;14.15;8.13;;;;;;;1.98;100.00;99093.97;5060280;28;19954;-71
2024/01/12 09:46:52;;;;;;;16.05;9.13;;;;;;;2.05;100.00;99098.72;5058680;28;20027;-66
2024/01/12 09:49:18;;;;;;;14.85;9.32;;;;;;;2.02;100.00;99092.91;5048393;28;20021;-68
2024/01/12 09:51:43;;;;;;;14.80;9.23;;;;;;;2.10;100.00;99108.75;5052599;28;20032;-68
2024/01/12 09:54:11;;;;;;;14.73;8.55;;;;;;;2.09;100.00;99109.66;5082431;28;20443;-68
2024/01/12 09:56:39;;;;;;;11.57;6.35;;;;;;;1.71;100.00;99040.63;5096138;27;20026;-71
2024/01/12 09:59:05;;;;;;;9.35;5.68;;;;;;;1.68;100.00;99045.91;5060798;28;20019;-69
2024/01/12 10:01:33;;;;;;;10.48;6.38;;;;;;;2.17;100.00;99102.38;5059529;28;20085;-71
2024/01/12 10:04:01;;;;;;;9.60;5.80;;;;;;;2.26;100.00;99104.47;5076747;28;20444;-70
2024/01/12 10:06:27;;;;;;;10.07;6.28;;;;;;;1.98;100.00;99040.94;5077200;28;20036;-68
2024/01/12 10:08:52;;;;;;;10.60;6.95;;;;;;;2.33;100.00;99093.88;5073264;27;20023;-68
2024/01/12 10:11:17;;;;;;;9.18;5.38;;;;;;;2.34;100.00;99091.25;5082996;28;20035;-67
2024/01/12 10:13:45;;;;;;;9.23;5.38;;;;;;;2.25;100.00;99054.06;5055675;28;20273;-66
2024/01/12 10:16:11;;;;;;;9.55;5.95;;;;;;;2.63;100.00;99104.28;5061267;28;20032;-68
2024/01/12 10:18:37;;;;;;;9.38;5.60;;;;;;;2.68;100.00;99090.28;5049859;28;20028;-67
2024/01/12 10:21:05;;;;;;;9.45;5.50;;;;;;;2.60;100.00;99096.72;5056213;28;20028;-66
2024/01/12 10:23:31;;;;;;;9.68;5.53;;;;;;;2.60;100.00;99087.28;5037273;28;20351;-71
2024/01/12 10:26:00;;;;;;;9.88;5.93;;;;;;;2.73;100.00;99084.06;5038824;28;20479;-70
2024/01/12 10:28:30;;;;;;;9.75;5.82;;;;;;;2.81;100.00;99077.59;5037295;28;20024;-67
2024/01/12 10:30:55;;;;;;;9.88;5.40;;;;;;;2.76;100.00;99064.16;5049761;28;20173;-72
2024/01/12 10:33:23;;;;;;;8.93;5.50;;;;;;;2.71;100.00;99034.53;5054850;28;20467;-67
2024/01/12 10:35:59;;;;;;;8.48;5.03;;;;;;;3.10;100.00;99087.16;5054708;28;20032;-67
2024/01/12 10:38:26;;;;;;;8.52;4.70;;;;;;;3.26;100.00;99082.81;5053112;28;20017;-68
2024/01/12 10:40:55;;;;;;;8.63;4.95;;;;;;;3.22;100.00;99082.16;5033352;28;20116;-70
2024/01/12 10:43:22;;;;;;;8.15;4.80;;;;;;;3.27;100.00;99080.16;5058192;28;20025;-68
2024/01/12 10:45:49;;;;;;;8.07;4.43;;;;;;;3.10;100.00;99041.72;5049711;28;20025;-68
2024/01/12 10:48:20;;;;;;;7.10;4.10;;;;;;;3.46;100.00;99085.06;5039707;28;20032;-71
2024/01/12 10:50:55;;;;;;;7.25;3.58;;;;;;;3.50;100.00;99074.59;5036114;28;20602;-69
2024/01/12 10:53:23;;;;;;;7.43;3.92;;;;;;;3.59;100.00;99081.78;5030510;28;20078;-69
2024/01/12 10:55:58;;;;;;;7.35;3.97;;;;;;;3.42;100.00;99027.03;5053808;28;20647;-69
2024/01/12 10:58:24;;;;;;;6.70;3.88;;;;;;;3.52;100.00;99023.91;5030969;28;20542;-70
2024/01/12 11:00:50;;;;;;;8.45;4.57;;;;;;;3.93;100.00;99072.94;5049935;28;20031;-69
2024/01/12 11:03:16;;;;;;;7.63;4.25;;;;;;;3.85;100.00;99055.38;5037319;28;20075;-67
2024/01/12 11:05:43;;;;;;;7.72;4.38;;;;;;;3.99;100.00;99067.41;5054637;28;20024;-70
2024/01/12 11:08:12;;;;;;;9.73;4.50;;;;;;;3.70;100.00;99009.16;5036505;28;20020;-69
2024/01/12 11:10:42;;;;;;;7.57;4.03;;;;;;;4.11;100.00;99065.84;5037678;28;20697;-70
2024/01/12 11:13:13;;;;;;;8.50;4.95;;;;;;;4.19;100.00;99053.34;5051283;28;21060;-70
2024/01/12 11:15:40;;;;;;;8.25;4.70;;;;;;;4.29;100.00;99052.75;5074647;28;20035;-72
2024/01/12 11:18:06;;;;;;;8.38;4.72;;;;;;;4.30;100.00;99055.25;5024669;28;20048;-71
2024/01/12 11:20:32;;;;;;;6.53;3.65;;;;;;;4.36;100.00;99059.19;5063560;27;20024;-69